createdAt,value
2018-12-29T00:02:36.375Z,99322.00
2018-12-29T00:06:38.727Z,99321.00
2018-12-29T00:10:41.056Z,99326.00
2018-12-29T00:14:43.362Z,99335.00
2018-12-29T00:18:45.660Z,99325.00
2018-12-29T00:22:47.988Z,99321.00
2018-12-29T00:26:50.267Z,99306.00
2018-12-29T00:30:52.605Z,99296.00
2018-12-29T00:34:54.969Z,99307.00
2018-12-29T00:38:57.302Z,99311.00
2018-12-29T00:42:59.679Z,99314.00
2018-12-29T00:47:02.012Z,99312.00
2018-12-29T00:51:04.357Z,99315.00
2018-12-29T00:55:06.766Z,99306.00
2018-12-29T00:59:09.100Z,99300.00
2018-12-29T01:03:11.477Z,99295.00
2018-12-29T01:07:13.921Z,99296.00
2018-12-29T01:11:16.287Z,99313.00
2018-12-29T01:15:18.596Z,99324.00
2018-12-29T01:19:20.951Z,99328.00
2018-12-29T01:23:23.365Z,99331.00
2018-12-29T01:27:25.672Z,99335.00
2018-12-29T01:31:28.032Z,99345.00
2018-12-29T01:35:30.333Z,99347.00
2018-12-29T01:39:32.636Z,99347.00
2018-12-29T01:43:34.926Z,99349.00
2018-12-29T01:47:37.258Z,99334.00
2018-12-29T01:51:39.551Z,99345.00
2018-12-29T01:55:41.906Z,99336.00
2018-12-29T01:59:44.227Z,99337.00
2018-12-29T02:03:46.597Z,99347.00
2018-12-29T02:07:48.987Z,99332.00
2018-12-29T02:11:51.330Z,99329.00
2018-12-29T02:15:53.779Z,99305.00
2018-12-29T02:19:56.087Z,99304.00
2018-12-29T02:23:58.355Z,99313.00
2018-12-29T02:28:00.740Z,99311.00
2018-12-29T02:32:03.041Z,99299.00
2018-12-29T02:36:05.376Z,99295.00
2018-12-29T02:40:07.724Z,99296.00
2018-12-29T02:44:10.049Z,99284.00
2018-12-29T02:48:12.357Z,99295.00
2018-12-29T02:52:14.621Z,99290.00
2018-12-29T02:56:17.010Z,99295.00
2018-12-29T03:00:19.342Z,99300.00
2018-12-29T03:04:21.644Z,99291.00
2018-12-29T03:08:23.962Z,99290.00
2018-12-29T03:12:26.275Z,99293.00
2018-12-29T03:16:28.630Z,99309.00
2018-12-29T03:20:31.011Z,99289.00
2018-12-29T03:24:33.349Z,99286.00
2018-12-29T03:28:36.154Z,99276.00
2018-12-29T03:32:38.556Z,99281.00
2018-12-29T03:36:40.926Z,99272.00
2018-12-29T03:40:43.264Z,99273.00
2018-12-29T03:44:45.578Z,99275.00
2018-12-29T03:48:47.919Z,99272.00
2018-12-29T03:52:50.263Z,99281.00
2018-12-29T03:56:52.584Z,99282.00
2018-12-29T04:00:54.891Z,99283.00
2018-12-29T04:04:57.259Z,99275.00
2018-12-29T04:09:11.061Z,99273.00
2018-12-29T04:13:13.352Z,99274.00
2018-12-29T04:17:15.731Z,99281.00
2018-12-29T04:21:18.046Z,99288.00
2018-12-29T04:25:23.957Z,99292.00
2018-12-29T04:29:26.286Z,99296.00
2018-12-29T04:33:28.641Z,99285.00
2018-12-29T04:37:30.947Z,99304.00
2018-12-29T04:41:33.312Z,99306.00
2018-12-29T04:45:35.631Z,99294.00
2018-12-29T04:49:37.976Z,99310.00
2018-12-29T04:53:40.365Z,99320.00
2018-12-29T04:57:42.677Z,99328.00
2018-12-29T05:01:45.006Z,99327.00
2018-12-29T05:05:47.361Z,99326.00
2018-12-29T05:09:49.696Z,99335.00
2018-12-29T05:13:51.987Z,99327.00
2018-12-29T05:17:54.280Z,99337.00
2018-12-29T05:21:56.586Z,99330.00
2018-12-29T05:25:58.895Z,99328.00
2018-12-29T05:30:01.166Z,99326.00
2018-12-29T05:34:03.488Z,99322.00
2018-12-29T05:38:05.850Z,99318.00
2018-12-29T05:42:08.235Z,99312.00
2018-12-29T05:46:10.501Z,99310.00
2018-12-29T05:50:12.827Z,99314.00
2018-12-29T05:54:15.151Z,99300.00
2018-12-29T05:58:17.430Z,99300.00
2018-12-29T06:02:19.711Z,99305.00
2018-12-29T06:06:21.996Z,99311.00
2018-12-29T06:10:24.351Z,99314.00
2018-12-29T06:14:26.653Z,99312.00
2018-12-29T06:18:29.001Z,99313.00
2018-12-29T06:22:31.301Z,99314.00
2018-12-29T06:26:33.669Z,99318.00
2018-12-29T06:30:35.968Z,99317.00
2018-12-29T06:34:39.029Z,99311.00
2018-12-29T06:38:41.376Z,99316.00
2018-12-29T06:42:43.693Z,99316.00
2018-12-29T06:46:45.997Z,99330.00
2018-12-29T06:50:48.429Z,99325.00
2018-12-29T06:54:50.743Z,99344.00
2018-12-29T06:58:53.033Z,99348.00
2018-12-29T07:02:55.338Z,99351.00
2018-12-29T07:06:57.628Z,99354.00
2018-12-29T07:10:59.973Z,99356.00
2018-12-29T07:15:02.313Z,99383.00
2018-12-29T07:19:04.616Z,99381.00
2018-12-29T07:23:06.969Z,99381.00
2018-12-29T07:27:09.279Z,99379.00
2018-12-29T07:31:11.583Z,99392.00
2018-12-29T07:35:13.958Z,99390.00
2018-12-29T07:39:16.369Z,99397.00
2018-12-29T07:43:18.697Z,99388.00
2018-12-29T07:47:21.018Z,99394.00
2018-12-29T07:51:23.327Z,99385.00
2018-12-29T07:55:25.635Z,99378.00
2018-12-29T07:59:28.048Z,99387.00
2018-12-29T08:03:30.365Z,99382.00
2018-12-29T08:07:32.722Z,99390.00
2018-12-29T08:11:35.202Z,99390.00
2018-12-29T08:15:37.569Z,99387.00
2018-12-29T08:19:39.889Z,99391.00
2018-12-29T08:23:42.234Z,99394.00
2018-12-29T08:27:44.569Z,99390.00
2018-12-29T08:31:46.859Z,99400.00
2018-12-29T08:35:49.217Z,99386.00
2018-12-29T08:39:51.561Z,99388.00
2018-12-29T08:43:53.932Z,99374.00
2018-12-29T08:47:56.303Z,99379.00
2018-12-29T08:51:58.667Z,99368.00
2018-12-29T08:56:01.024Z,99369.00
2018-12-29T09:00:03.848Z,99369.00
2018-12-29T09:04:06.136Z,99385.00
2018-12-29T09:08:08.453Z,99377.00
2018-12-29T09:12:10.806Z,99386.00
2018-12-29T09:16:13.122Z,99394.00
2018-12-29T09:20:15.481Z,99388.00
2018-12-29T09:24:17.827Z,99384.00
2018-12-29T09:28:20.169Z,99381.00
2018-12-29T09:32:22.467Z,99385.00
2018-12-29T09:36:24.830Z,99382.00
2018-12-29T09:40:27.252Z,99386.00
2018-12-29T09:44:29.562Z,99381.00
2018-12-29T09:48:31.928Z,99384.00
2018-12-29T09:52:34.233Z,99388.00
2018-12-29T09:56:36.567Z,99380.00
2018-12-29T10:00:38.844Z,99388.00
2018-12-29T10:04:41.221Z,99387.00
2018-12-29T10:08:43.482Z,99391.00
2018-12-29T10:12:45.797Z,99385.00
2018-12-29T10:16:48.088Z,99387.00
2018-12-29T10:20:50.397Z,99388.00
2018-12-29T10:24:52.689Z,99382.00
2018-12-29T10:28:55.038Z,99373.00
2018-12-29T10:32:57.341Z,99373.00
2018-12-29T10:36:59.680Z,99368.00
2018-12-29T10:41:02.096Z,99354.00
2018-12-29T10:45:04.568Z,99345.00
2018-12-29T10:49:06.933Z,99352.00
2018-12-29T10:53:09.282Z,99349.00
2018-12-29T10:57:11.584Z,99343.00
2018-12-29T11:01:13.911Z,99337.00
2018-12-29T11:05:16.312Z,99327.00
2018-12-29T11:09:18.646Z,99318.00
2018-12-29T11:13:20.991Z,99311.00
2018-12-29T11:17:23.318Z,99292.00
2018-12-29T11:21:25.651Z,99278.00
2018-12-29T11:25:28.333Z,99271.00
2018-12-29T11:29:30.751Z,99259.00
2018-12-29T11:33:33.069Z,99256.00
2018-12-29T11:37:35.421Z,99248.00
2018-12-29T11:41:37.750Z,99230.00
2018-12-29T11:45:40.063Z,99224.00
2018-12-29T11:49:42.342Z,99224.00
2018-12-29T11:53:44.717Z,99217.00
2018-12-29T11:57:47.082Z,99219.00
2018-12-29T12:01:49.417Z,99210.00
2018-12-29T12:05:51.784Z,99229.00
2018-12-29T12:09:54.164Z,99228.00
2018-12-29T12:13:56.508Z,99230.00
2018-12-29T12:17:58.929Z,99228.00
2018-12-29T12:22:01.319Z,99220.00
2018-12-29T12:26:03.661Z,99214.00
2018-12-29T12:30:06.738Z,99207.00
2018-12-29T12:34:09.081Z,99207.00
2018-12-29T12:38:11.474Z,99211.00
2018-12-29T12:42:13.880Z,99208.00
2018-12-29T12:46:16.295Z,99204.00
2018-12-29T12:50:18.669Z,99186.00
2018-12-29T12:54:21.016Z,99174.00
2018-12-29T12:58:23.369Z,99191.00
2018-12-29T13:02:25.731Z,99190.00
2018-12-29T13:06:28.400Z,99166.00
2018-12-29T13:10:30.871Z,99178.00
2018-12-29T13:14:33.235Z,99202.00
2018-12-29T13:18:35.579Z,99221.00
2018-12-29T13:22:37.909Z,99223.00
2018-12-29T13:26:40.509Z,99232.00
2018-12-29T13:30:42.820Z,99210.00
2018-12-29T13:34:45.168Z,99206.00
2018-12-29T13:38:47.524Z,99206.00
2018-12-29T13:42:49.853Z,99199.00
2018-12-29T13:46:52.283Z,99203.00
2018-12-29T13:50:54.700Z,99216.00
2018-12-29T13:54:57.068Z,99213.00
2018-12-29T13:58:59.668Z,99184.00
2018-12-29T14:03:02.013Z,99182.00
2018-12-29T14:07:04.374Z,99174.00
2018-12-29T14:11:06.790Z,99181.00
2018-12-29T14:15:09.188Z,99181.00
2018-12-29T14:19:11.539Z,99168.00
2018-12-29T14:23:13.927Z,99146.00
2018-12-29T14:27:16.224Z,99135.00
2018-12-29T14:31:18.637Z,99130.00
2018-12-29T14:35:21.181Z,99153.00
2018-12-29T14:39:23.554Z,99155.00
2018-12-29T14:43:25.888Z,99141.00
2018-12-29T14:47:28.257Z,99129.00
2018-12-29T14:51:30.590Z,99125.00
2018-12-29T14:55:33.079Z,99119.00
2018-12-29T14:59:35.394Z,99112.00
2018-12-29T15:03:37.775Z,99139.00
2018-12-29T15:07:40.143Z,99140.00
2018-12-29T15:11:42.578Z,99154.00
2018-12-29T15:15:44.865Z,99164.00
2018-12-29T15:19:47.313Z,99170.00
2018-12-29T15:23:49.718Z,99164.00
2018-12-29T15:27:52.057Z,99144.00
2018-12-29T15:31:54.387Z,99123.00
2018-12-29T15:35:56.827Z,99107.00
2018-12-29T15:39:59.228Z,99100.00
2018-12-29T15:44:01.588Z,99096.00
2018-12-29T15:48:03.999Z,99076.00
2018-12-29T15:52:06.370Z,99070.00
2018-12-29T15:56:08.701Z,99065.00
2018-12-29T16:00:11.064Z,99062.00
2018-12-29T16:04:13.442Z,99055.00
2018-12-29T16:08:15.814Z,99063.00
2018-12-29T16:12:18.214Z,99039.00
2018-12-29T16:16:20.606Z,99031.00
2018-12-29T16:20:23.077Z,99022.00
2018-12-29T16:24:25.459Z,99022.00
2018-12-29T16:28:27.858Z,99041.00
2018-12-29T16:32:30.513Z,99050.00
2018-12-29T16:36:32.862Z,99044.00
2018-12-29T16:40:35.225Z,99037.00
2018-12-29T16:44:39.211Z,99016.00
2018-12-29T16:48:41.543Z,99003.00
2018-12-29T16:52:43.939Z,98968.00
2018-12-29T16:56:46.322Z,98989.00
2018-12-29T17:00:48.702Z,99007.00
2018-12-29T17:04:51.022Z,99019.00
2018-12-29T17:08:53.391Z,99018.00
2018-12-29T17:12:55.703Z,99013.00
2018-12-29T17:16:58.088Z,99004.00
2018-12-29T17:21:00.433Z,99050.00
2018-12-29T17:25:02.872Z,99032.00
2018-12-29T17:29:05.273Z,99030.00
2018-12-29T17:33:07.664Z,99000.00
2018-12-29T17:37:10.034Z,98981.00
2018-12-29T17:41:12.399Z,98973.00
2018-12-29T17:45:14.763Z,98967.00
2018-12-29T17:49:22.588Z,98963.00
2018-12-29T17:53:19.461Z,98952.00
2018-12-29T17:57:21.797Z,98949.00
2018-12-29T18:01:24.162Z,98952.00
2018-12-29T18:05:26.515Z,98933.00
2018-12-29T18:09:28.907Z,98943.00
2018-12-29T18:13:31.302Z,98937.00
2018-12-29T18:17:33.698Z,98912.00
2018-12-29T18:21:36.044Z,98915.00
2018-12-29T18:25:38.488Z,98903.00
2018-12-29T18:29:40.929Z,98902.00
2018-12-29T18:33:43.346Z,98877.00
2018-12-29T18:37:46.392Z,98892.00
2018-12-29T18:41:48.867Z,98892.00
2018-12-29T18:45:51.281Z,98875.00
2018-12-29T18:49:54.463Z,98898.00
2018-12-29T18:53:56.808Z,98886.00
2018-12-29T18:57:59.151Z,98888.00
2018-12-29T19:02:01.770Z,98876.00
2018-12-29T19:06:04.166Z,98882.00
2018-12-29T19:10:06.632Z,98869.00
2018-12-29T19:14:08.994Z,98876.00
2018-12-29T19:18:11.389Z,98874.00
2018-12-29T19:22:13.966Z,98863.00
2018-12-29T19:26:17.621Z,98865.00
2018-12-29T19:30:20.027Z,98859.00
2018-12-29T19:34:22.478Z,98866.00
2018-12-29T19:38:24.944Z,98852.00
2018-12-29T19:42:28.384Z,98848.00
2018-12-29T19:46:30.774Z,98851.00
2018-12-29T19:50:33.179Z,98852.00
2018-12-29T19:54:35.636Z,98847.00
2018-12-29T19:58:38.031Z,98830.00
2018-12-29T20:02:40.564Z,98833.00
2018-12-29T20:06:42.888Z,98822.00
2018-12-29T20:10:45.311Z,98824.00
2018-12-29T20:14:47.700Z,98826.00
2018-12-29T20:18:50.449Z,98804.00
2018-12-29T20:22:52.887Z,98799.00
2018-12-29T20:26:55.319Z,98813.00
2018-12-29T20:30:57.716Z,98817.00
2018-12-29T20:35:00.182Z,98805.00
2018-12-29T20:39:03.009Z,98788.00
2018-12-29T20:43:05.375Z,98780.00
2018-12-29T20:47:08.411Z,98777.00
2018-12-29T20:51:10.790Z,98752.00
2018-12-29T20:55:13.280Z,98756.00
2018-12-29T20:59:15.835Z,98774.00
2018-12-29T21:03:18.309Z,98772.00
2018-12-29T21:07:20.708Z,98758.00
2018-12-29T21:11:23.087Z,98752.00
2018-12-29T21:15:25.508Z,98745.00
2018-12-29T21:19:28.108Z,98745.00
2018-12-29T21:23:30.500Z,98739.00
2018-12-29T21:27:32.909Z,98737.00
2018-12-29T21:31:35.455Z,98722.00
2018-12-29T21:35:37.910Z,98730.00
2018-12-29T21:39:40.470Z,98729.00
2018-12-29T21:43:42.894Z,98731.00
2018-12-29T21:47:45.741Z,98726.00
2018-12-29T21:51:48.094Z,98715.00
2018-12-29T21:55:50.528Z,98752.00
2018-12-29T21:59:52.912Z,98754.00
2018-12-29T22:03:55.782Z,98742.00
2018-12-29T22:07:58.222Z,98761.00
2018-12-29T22:12:00.883Z,98753.00
2018-12-29T22:16:03.533Z,98737.00
2018-12-29T22:20:06.568Z,98728.00
2018-12-29T22:24:08.997Z,98731.00
2018-12-29T22:28:12.018Z,98733.00
2018-12-29T22:32:14.669Z,98739.00
2018-12-29T22:36:17.089Z,98719.00
2018-12-29T22:40:19.529Z,98733.00
2018-12-29T22:44:21.974Z,98729.00
2018-12-29T22:48:24.433Z,98717.00
2018-12-29T22:52:26.975Z,98723.00
2018-12-29T22:56:29.548Z,98711.00
2018-12-29T23:00:36.540Z,98724.00
2018-12-29T23:04:38.974Z,98713.00
2018-12-29T23:08:41.355Z,98706.00
2018-12-29T23:12:43.736Z,98717.00
2018-12-29T23:16:46.299Z,98713.00
2018-12-29T23:20:49.308Z,98703.00
2018-12-29T23:24:51.171Z,98711.00
2018-12-29T23:28:53.530Z,98716.00
2018-12-29T23:32:55.924Z,98708.00
2018-12-29T23:36:58.375Z,98709.00
2018-12-29T23:41:00.739Z,98714.00
2018-12-29T23:45:03.652Z,98703.00
2018-12-29T23:49:06.039Z,98699.00
2018-12-29T23:53:08.364Z,98695.00
2018-12-29T23:57:10.723Z,98688.00
